• Join FlightAware (Why Join?)
  • Login
  • US Flag 
03:55AM EDT


 

Airport Tracker/Info


-or-


 

Live Flight TrackerFlight Track Log ✈ SWA1130 ✈ 01-May-2013 ✈ KATL - KLAS

Flight Track Log - Related Links

Times and Time Zones

All times are in EDT time to prevent confusion due to time zone crossing. See the SWA1130 flight status page for this flight to view local times or setup timezone preferences in your user account.

Time Position Orientation Groundspeed Altitude Reporting Facility
EDT Latitude Longitude Course Direction KTS MPH feet Rate Location/Type
11:26AM 33.6500 -84.3833 68° East 152 175 2,300  Level Atlanta TRACON
11:27AM 33.6667 -84.3333 68° East 208 239 3,600 1,680 Climbing Atlanta TRACON
11:28AM 33.7167 -84.2833 40° Northeast 267 307 5,500 2,280 Climbing Atlanta TRACON
11:30AM 33.8125 -84.4314 308° West 294 338 11,400 2,580 Climbing Atlanta Center
11:31AM 33.8119 -84.5439 270° West 339 390 14,200 2,820 Climbing Atlanta Center
11:32AM 33.7906 -84.6661 258° West 362 417 17,100 2,640 Climbing Atlanta Center
11:33AM 33.7586 -84.7958 254° West 383 441 19,500 2,400 Climbing Atlanta Center
11:34AM 33.7242 -84.9331 253° West 406 467 21,900 1,740 Climbing Atlanta Center
11:35AM 33.6897 -85.0675 253° West 421 484 23,000 600 Climbing Atlanta Center
11:36AM 33.6572 -85.1992 254° West 421 484 23,100 480 Climbing Atlanta Center
11:37AM 33.6497 -85.3364 266° West 414 476 24,000 420 Climbing Atlanta Center
11:38AM 33.6542 -85.4939 272° West 424 488 24,000  Level Atlanta Center
11:39AM 33.6567 -85.6336 271° West 424 488 24,000 300 Level Atlanta Center
11:40AM 33.6589 -85.7733 271° West 424 488 24,700 1,140 Climbing Atlanta Center
11:41AM 33.6631 -85.9131 272° West 424 488 26,300 1,620 Climbing Atlanta Center
11:42AM 33.6608 -86.0603 269° West 430 495 28,000 1,500 Climbing Atlanta Center
11:43AM 33.6625 -86.2103 271° West 440 506 29,400 1,500 Climbing Atlanta Center
11:44AM 33.6639 -86.3625 271° West 451 519 31,100 1,260 Climbing Atlanta Center
11:45AM 33.6650 -86.5122 271° West 456 525 32,000 420 Climbing Atlanta Center
11:46AM 33.6661 -86.6644 271° West 456 525 32,000  Level Atlanta Center
11:47AM 33.6689 -86.8169 271° West 456 525 32,000  Level Atlanta Center
11:48AM 33.6822 -86.9672 276° West 456 525 32,000  Level Atlanta Center
11:49AM 33.7103 -87.1028 284° West 461 531 32,000  Level Atlanta Center
11:51AM 33.7672 -87.3711 284° West 473 544 32,000  Level Memphis Center
11:52AM 33.7997 -87.5050 286° West 465 535 32,000  Level Memphis Center
11:53AM 33.8303 -87.6542 284° West 454 522 32,000 900 Level Memphis Center
11:54AM 33.8625 -87.7981 285° West 449 517 33,900 960 Climbing Memphis Center
11:55AM 33.8903 -87.9425 283° West 449 517 34,000 60 Climbing Memphis Center
11:56AM 33.9206 -88.1017 283° West 442 509 34,100 780 Climbing Memphis Center
11:57AM 33.9481 -88.2514 283° West 455 524 35,600 1,380 Climbing Memphis Center
11:58AM 33.9714 -88.3936 281° West 450 518 36,900 1,200 Climbing Memphis Center
11:59AM 33.9925 -88.5383 280° West 445 512 38,000 540 Climbing Memphis Center
12:00PM 34.0131 -88.6756 280° West 440 506 38,000  Level Memphis Center
12:01PM 34.0358 -88.8206 281° West 440 506 38,000  Level Memphis Center
12:02PM 34.0564 -88.9608 280° West 428 493 38,000  Level Memphis Center
12:03PM 34.0767 -89.1008 280° West 428 493 38,000  Level Memphis Center
12:04PM 34.0944 -89.2283 280° West 428 493 38,000  Level Memphis Center
12:05PM 34.1144 -89.3736 279° West 428 493 38,000  Level Memphis Center
12:06PM 34.1364 -89.5189 280° West 439 505 38,000  Level Memphis Center
12:07PM 34.1583 -89.6669 280° West 445 512 38,000  Level Memphis Center
12:08PM 34.1756 -89.8122 278° West 445 512 38,000  Level Memphis Center
12:09PM 34.1992 -89.9756 280° West 445 512 38,000  Level Memphis Center
12:10PM 34.2183 -90.1211 279° West 445 512 38,000  Level Memphis Center
12:11PM 34.2394 -90.2667 280° West 445 512 38,000  Level Memphis Center
12:12PM 34.2603 -90.4100 280° West 445 512 38,000  Level Memphis Center
12:13PM 34.2789 -90.5558 279° West 445 512 38,000  Level Memphis Center
12:14PM 34.2975 -90.6992 279° West 445 512 38,000  Level Memphis Center
12:15PM 34.3178 -90.8450 280° West 445 512 38,000  Level Memphis Center
12:16PM 34.3339 -90.9758 279° West 445 512 38,000  Level Memphis Center
12:17PM 34.3542 -91.1219 280° West 443 510 38,000  Level Memphis Center
12:18PM 34.3719 -91.2706 278° West 450 518 38,000  Level Memphis Center
12:19PM 34.3917 -91.4167 279° West 450 518 38,000  Level Memphis Center
12:20PM 34.4089 -91.5656 278° West 450 518 38,000  Level Memphis Center
12:21PM 34.4261 -91.7169 278° West 450 518 38,000  Level Memphis Center
12:22PM 34.4472 -91.8783 279° West 450 518 38,000  Level Memphis Center
12:23PM 34.4664 -92.0247 279° West 450 518 38,000  Level Memphis Center
12:24PM 34.4872 -92.1739 280° West 450 518 38,000  Level Memphis Center
12:25PM 34.5058 -92.3281 278° West 450 518 38,000  Level Memphis Center
12:26PM 34.5242 -92.4747 279° West 450 518 38,000  Level Memphis Center
12:27PM 34.5383 -92.6239 277° West 450 518 38,000  Level Memphis Center
12:28PM 34.5542 -92.7731 277° West 445 512 38,000  Level Memphis Center
12:29PM 34.5700 -92.9222 277° West 450 518 38,000  Level Memphis Center
12:30PM 34.5897 -93.0742 279° West 450 518 38,000  Level Memphis Center
12:31PM 34.6053 -93.2261 277° West 450 518 38,000  Level Memphis Center
12:33PM 34.6386 -93.5142 278° West 490 564 38,000  Level Fort Worth Center
12:34PM 34.6556 -93.6647 278° West 474 545 38,000  Level Fort Worth Center
12:35PM 34.6683 -93.8133 276° West 462 532 38,000  Level Fort Worth Center
12:36PM 34.6872 -93.9639 279° West 457 526 38,000  Level Fort Worth Center
12:37PM 34.6994 -94.1125 276° West 452 520 38,000  Level Fort Worth Center
12:38PM 34.7158 -94.2633 278° West 452 520 38,000  Level Fort Worth Center
12:39PM 34.7300 -94.4094 277° West 452 520 38,000  Level Fort Worth Center
12:40PM 34.7461 -94.5631 277° West 452 520 38,000  Level Fort Worth Center
12:41PM 34.7597 -94.7067 277° West 447 514 38,000  Level Fort Worth Center
12:42PM 34.7733 -94.8578 276° West 442 509 38,000  Level Fort Worth Center
12:43PM 34.7867 -95.0042 276° West 442 509 38,000  Level Fort Worth Center
12:44PM 34.7997 -95.1453 276° West 442 509 38,000  Level Fort Worth Center
12:45PM 34.8125 -95.2764 277° West 436 502 38,000  Level Fort Worth Center
12:46PM 34.8253 -95.4228 276° West 441 507 38,000  Level Fort Worth Center
12:47PM 34.8381 -95.5819 276° West 441 507 38,000  Level Fort Worth Center
12:48PM 34.8506 -95.7258 276° West 441 507 38,000  Level Fort Worth Center
12:49PM 34.8628 -95.8700 276° West 441 507 38,000  Level Fort Worth Center
12:50PM 34.8750 -96.0139 276° West 436 502 38,000  Level Fort Worth Center
12:51PM 34.8869 -96.1631 276° West 436 502 38,000  Level Fort Worth Center
12:52PM 34.9008 -96.3122 277° West 442 509 38,000  Level Fort Worth Center
12:53PM 34.9125 -96.4614 275° West 442 509 38,000  Level Fort Worth Center
12:54PM 34.9261 -96.6108 276° West 442 509 38,000  Level Fort Worth Center
12:55PM 34.9414 -96.7575 277° West 442 509 38,000  Level Fort Worth Center
12:56PM 34.9589 -96.9069 278° West 442 509 38,000  Level Fort Worth Center
12:57PM 34.9781 -97.0511 279° West 442 509 38,000  Level Fort Worth Center
12:58PM 34.9931 -97.2006 277° West 442 509 38,000  Level Fort Worth Center
12:59PM 35.0119 -97.3450 279° West 442 509 38,000  Level Fort Worth Center
01:00PM 35.0286 -97.4922 278° West 442 509 38,000  Level Fort Worth Center
01:01PM 35.0453 -97.6367 278° West 442 509 38,000  Level Fort Worth Center
01:02PM 35.0614 -97.7839 278° West 442 509 38,000  Level Fort Worth Center
01:03PM 35.0756 -97.9158 278° West 442 509 38,000  Level Fort Worth Center
01:04PM 35.0917 -98.0631 278° West 442 509 38,000  Level Fort Worth Center
01:05PM 35.1097 -98.2078 279° West 442 509 38,000  Level Fort Worth Center
01:06PM 35.1253 -98.3528 278° West 442 509 38,000  Level Fort Worth Center
01:07PM 35.1428 -98.5103 278° West 442 509 38,000  Level Fort Worth Center
01:08PM 35.1581 -98.6553 277° West 437 503 38,000  Level Fort Worth Center
01:09PM 35.1733 -98.7978 278° West 437 503 38,000  Level Fort Worth Center
01:10PM 35.1903 -98.9453 278° West 437 503 38,000  Level Fort Worth Center
01:11PM 35.2031 -99.0931 276° West 437 503 38,000  Level Fort Worth Center
01:12PM 35.2156 -99.2381 276° West 437 503 38,000  Level Fort Worth Center
01:14PM 35.2450 -99.5031 278° West 429 494 38,000  Level Albuquerque Center
01:15PM 35.2589 -99.6483 277° West 428 493 38,000  Level Albuquerque Center
01:16PM 35.2719 -99.7925 276° West 426 490 38,000  Level Albuquerque Center
01:17PM 35.2892 -99.9647 277° West 424 488 38,000  Level Albuquerque Center
01:18PM 35.3025 -100.1083 277° West 423 487 38,000  Level Albuquerque Center
01:19PM 35.3153 -100.2508 276° West 421 484 38,000  Level Albuquerque Center
01:20PM 35.3272 -100.3936 276° West 420 483 38,000  Level Albuquerque Center
01:21PM 35.3411 -100.5364 277° West 420 483 38,000  Level Albuquerque Center
01:22PM 35.3536 -100.6864 276° West 418 481 38,000  Level Albuquerque Center
01:23PM 35.3658 -100.8264 276° West 416 479 38,000  Level Albuquerque Center
01:24PM 35.3772 -100.9658 276° West 414 476 38,000  Level Albuquerque Center
01:25PM 35.3914 -101.1333 276° West 413 475 38,000  Level Albuquerque Center
01:26PM 35.4025 -101.2717 276° West 411 473 38,000  Level Albuquerque Center
01:27PM 35.4156 -101.4083 277° West 414 476 38,000  Level Albuquerque Center
01:28PM 35.4297 -101.5489 277° West 415 478 38,000  Level Albuquerque Center
01:29PM 35.4428 -101.7028 276° West 415 478 38,000  Level Albuquerque Center
01:30PM 35.4514 -101.8436 274° West 412 474 38,000  Level Albuquerque Center
01:31PM 35.4600 -101.9881 274° West 410 472 38,000  Level Albuquerque Center
01:32PM 35.4692 -102.1250 275° West 406 467 38,000  Level Albuquerque Center
01:33PM 35.4794 -102.2619 275° West 406 467 38,000  Level Albuquerque Center
01:34PM 35.4897 -102.3986 275° West 404 465 38,000  Level Albuquerque Center
01:35PM 35.5014 -102.5619 275° West 403 464 38,000  Level Albuquerque Center
01:37PM 35.5114 -102.6975 275° West 403 464 38,000  Level Albuquerque Center
01:38PM 35.5208 -102.8342 275° West 401 461 38,000  Level Albuquerque Center
01:39PM 35.5294 -102.9706 274° West 399 459 38,000  Level Albuquerque Center
01:40PM 35.5389 -103.1089 275° West 403 464 38,000  Level Albuquerque Center
01:41PM 35.5478 -103.2461 275° West 401 461 38,000  Level Albuquerque Center
01:42PM 35.5592 -103.4069 275° West 402 463 38,000  Level Albuquerque Center
01:43PM 35.5675 -103.5439 274° West 401 461 38,000  Level Albuquerque Center
01:44PM 35.5764 -103.6794 275° West 398 458 38,000  Level Albuquerque Center
01:45PM 35.5839 -103.8142 274° West 395 455 38,000  Level Albuquerque Center
01:46PM 35.5933 -103.9472 275° West 391 450 38,000  Level Albuquerque Center
01:47PM 35.6011 -104.0808 274° West 392 451 38,000  Level Albuquerque Center
01:48PM 35.6092 -104.2383 274° West 395 455 38,000  Level Albuquerque Center
01:49PM 35.6169 -104.3739 274° West 396 456 38,000  Level Albuquerque Center
01:50PM 35.6239 -104.5103 274° West 398 458 38,000  Level Albuquerque Center
01:51PM 35.6319 -104.6472 274° West 400 460 38,000  Level Albuquerque Center
01:52PM 35.6389 -104.7828 274° West 397 457 38,000  Level Albuquerque Center
01:53PM 35.6456 -104.9172 274° West 393 452 38,000  Level Albuquerque Center
01:54PM 35.6539 -105.0742 274° West 392 451 38,000  Level Albuquerque Center
01:55PM 35.6558 -105.2100 271° West 394 453 38,000  Level Albuquerque Center
01:56PM 35.6492 -105.3456 267° West 394 453 38,000  Level Albuquerque Center
01:57PM 35.6444 -105.4750 267° West 383 441 38,000  Level Albuquerque Center
01:58PM 35.6400 -105.6067 268° West 377 434 38,000  Level Albuquerque Center
01:59PM 35.6350 -105.7386 267° West 384 442 38,000  Level Albuquerque Center
02:00PM 35.6303 -105.8703 268° West 386 444 38,000  Level Albuquerque Center
02:01PM 35.6261 -106.0008 268° West 385 443 38,000  Level Albuquerque Center
02:02PM 35.6189 -106.1572 267° West 384 442 38,000  Level Albuquerque Center
02:03PM 35.6156 -106.2864 268° West 381 438 38,000  Level Albuquerque Center
02:04PM 35.6094 -106.4167 267° West 383 441 38,000  Level Albuquerque Center
02:05PM 35.6047 -106.5447 267° West 380 437 38,000  Level Albuquerque Center
02:06PM 35.5975 -106.6733 266° West 379 436 38,000  Level Albuquerque Center
02:08PM 35.5928 -106.8003 267° West 376 433 38,000  Level Albuquerque Center
02:09PM 35.5844 -106.9547 266° West 380 437 38,000  Level Albuquerque Center
02:10PM 35.5789 -107.0819 267° West 378 435 38,000  Level Albuquerque Center
02:11PM 35.5717 -107.2119 266° West 376 433 38,000  Level Albuquerque Center
02:12PM 35.5656 -107.3339 267° West 375 432 38,000  Level Albuquerque Center
02:13PM 35.5581 -107.4806 266° West 382 440 38,000  Level Albuquerque Center
02:14PM 35.5506 -107.6067 266° West 385 443 38,000  Level Albuquerque Center
02:15PM 35.5439 -107.7514 267° West 383 441 38,000  Level Albuquerque Center
02:16PM 35.5369 -107.8767 266° West 383 441 38,000  Level Albuquerque Center
02:17PM 35.5292 -108.0242 266° West 385 443 38,000  Level Albuquerque Center
02:18PM 35.5217 -108.1506 266° West 386 444 38,000  Level Albuquerque Center
02:19PM 35.5122 -108.3003 266° West 392 451 38,000  Level Albuquerque Center
02:20PM 35.5044 -108.4300 266° West 394 453 38,000  Level Albuquerque Center
02:21PM 35.4967 -108.5603 266° West 397 457 38,000  Level Albuquerque Center
02:22PM 35.4869 -108.7128 266° West 399 459 38,000  Level Albuquerque Center
02:23PM 35.4783 -108.8444 265° West 402 463 38,000  Level Albuquerque Center
02:24PM 35.4828 -108.9983 272° West 401 461 38,000  Level Albuquerque Center
02:25PM 35.4900 -109.1281 274° West 399 459 38,000  Level Albuquerque Center
02:26PM 35.4958 -109.2578 273° West 397 457 38,000  Level Albuquerque Center
02:27PM 35.5033 -109.4067 274° West 393 452 38,000  Level Albuquerque Center
02:28PM 35.5081 -109.5342 273° West 390 449 38,000  Level Albuquerque Center
02:29PM 35.5139 -109.6836 273° West 391 450 38,000  Level Albuquerque Center
02:30PM 35.5197 -109.8106 273° West 390 449 38,000  Level Albuquerque Center
02:31PM 35.5239 -109.9611 272° West 393 452 38,000  Level Albuquerque Center
02:32PM 35.5303 -110.0942 273° West 401 461 38,000 -300 Level Albuquerque Center
02:33PM 35.5344 -110.2228 272° West 399 459 37,500 -840 Descending Albuquerque Center
02:34PM 35.5408 -110.3725 273° West 394 453 36,400 -780 Descending Albuquerque Center
02:35PM 35.5447 -110.4994 272° West 390 449 36,000 -240 Descending Albuquerque Center
02:36PM 35.5489 -110.6461 272° West 387 445 36,000  Level Albuquerque Center
02:37PM 35.5544 -110.7717 273° West 385 443 36,000  Level Albuquerque Center
02:38PM 35.5589 -110.9189 272° West 386 444 36,000  Level Albuquerque Center
02:39PM 35.5628 -111.0461 272° West 389 448 36,000  Level Albuquerque Center
02:40PM 35.5681 -111.1742 273° West 391 450 36,000 -120 Level Albuquerque Center
02:41PM 35.5725 -111.3214 272° West 389 448 35,800 -1,200 Descending Albuquerque Center
02:43PM 35.5769 -111.4589 272° West 388 447 33,600 -2,040 Descending Albuquerque Center
02:44PM 35.5819 -111.5861 273° West 379 436 31,600 -1,800 Descending Albuquerque Center
02:45PM 35.5856 -111.7067 272° West 363 418 30,000 -780 Descending Albuquerque Center
02:46PM 35.5889 -111.8289 272° West 359 413 30,000  Level Albuquerque Center
02:47PM 35.5922 -111.9506 272° West 360 414 30,000  Level Albuquerque Center
02:48PM 35.5947 -112.0736 271° West 361 415 30,000  Level Albuquerque Center
02:49PM 35.5986 -112.2075 272° West 362 417 30,000 -480 Level Albuquerque Center
02:50PM 35.6022 -112.3319 272° West 364 419 29,100 -900 Descending Albuquerque Center
02:51PM 35.6067 -112.4906 272° West 382 440 28,200 -540 Descending Albuquerque Center
02:52PM 35.6086 -112.6336 271° West 410 472 28,000 -120 Descending Albuquerque Center
02:53PM 35.6122 -112.7817 272° West 409 471 28,000  Level Los Angeles Center
02:54PM 35.6147 -112.9442 271° West 413 475 28,000  Level Los Angeles Center
02:55PM 35.6183 -113.0861 272° West 415 478 28,000  Level Los Angeles Center
02:56PM 35.6208 -113.2294 271° West 418 481 28,000  Level Los Angeles Center
02:57PM 35.6214 -113.3722 270° West 419 482 28,000 -720 Level Los Angeles Center
02:58PM 35.6233 -113.5103 271° West 410 472 26,600 -1,800 Descending Los Angeles Center
02:59PM 35.6358 -113.6392 277° West 390 449 24,300 -2,460 Descending Los Angeles Center
03:00PM 35.6594 -113.7886 281° West 375 432 21,600 -2,400 Descending Los Angeles Center
03:01PM 35.6761 -113.9089 280° West 362 417 19,400 -1,860 Descending Los Angeles Center
03:02PM 35.6925 -114.0244 280° West 350 403 17,800 -1,980 Descending Los Angeles Center
03:03PM 35.7086 -114.1367 280° West 338 389 15,400 -2,400 Descending Los Angeles Center
03:04PM 35.7264 -114.2542 281° West 349 402 13,100 -1,680 Descending Los Angeles Center
03:05PM 35.7469 -114.3744 282° West 319 367 12,000 -600 Descending Los Angeles Center
03:06PM 35.8194 -114.4192 333° Northwest 300 345 11,800 -360 Descending Los Angeles Center
03:07PM 35.8853 -114.4500 339° North 259 298 11,300 -780 Descending Los Angeles Center
03:08PM 35.9433 -114.4781 339° North 241 277 10,400 -720 Descending Los Angeles Center
03:09PM 35.9825 -114.5447 306° West 231 266 9,800 -840 Descending Los Angeles Center
03:10PM 36.0156 -114.6081 303° West 230 265 8,700 -960 Descending Los Angeles Center
03:11PM 36.0519 -114.6839 301° West 229 264 8,000 -420 Descending Los Angeles Center
03:12PM 36.0744 -114.7561 291° West 236 272 7,900 -540 Descending Los Angeles Center
03:13PM 36.0739 -114.8417 270° West 246 283 7,000 -1,260 Descending Los Angeles Center
03:15PM 36.0739 -114.9339 270° West 241 277 5,200 -1,380 Descending Los Angeles Center
03:16PM 36.0728 -115.0044 269° West 202 232 4,100 -1,140 Descending Los Angeles Center
03:17PM 36.0725 -115.0628 270° West 184 212 3,100 -1,020 Descending Los Angeles Center
03:18PM 36.0739 -115.1183 272° West 160 184 2,200 -900 Descending Los Angeles Center
03:20PM 36.0667 -115.1500 270° West  Level FlightAware Approximate